Time;durP1;ratioP1;P1;durP2;ratioP2;P2;SDS_P1;SDS_P2;PMS_P1;PMS_P2;Temp;Humidity;BMP_temperature;BMP_pressure;BME280_temperature;BME280_humidity;BME280_pressure;Samples;Min_cycle;Max_cycle;Signal;HPM_P1;HPM_P2
2021/12/14 00:00:17;;;;;;;143.20;63.60;;;;;;;2.56;92.36;101386.94;102961;1313;22626;-61
2021/12/14 00:03:09;;;;;;;140.80;64.70;;;;;;;2.55;92.39;101380.80;102939;1317;22574;-62
2021/12/14 00:05:43;;;;;;;140.30;59.80;;;;;;;2.55;92.42;101376.77;102933;1313;24246;-61
2021/12/14 00:08:15;;;;;;;126.30;60.50;;;;;;;2.55;92.48;101379.38;103008;1312;25579;-60
2021/12/14 00:11:10;;;;;;;127.70;61.80;;;;;;;2.54;92.46;101379.45;103041;1317;23100;-60
2021/12/14 00:13:56;;;;;;;130.50;58.10;;;;;;;2.52;92.47;101383.01;102781;1313;22666;-61
2021/12/14 00:16:27;;;;;;;128.90;58.10;;;;;;;2.52;92.55;101383.40;102798;1312;22602;-61
2021/12/14 00:19:01;;;;;;;127.70;56.60;;;;;;;2.52;92.62;101381.36;102927;1317;22657;-60
2021/12/14 00:21:33;;;;;;;132.50;59.50;;;;;;;2.53;92.61;101387.10;102937;1316;22590;-60
2021/12/14 00:24:10;;;;;;;133.20;58.60;;;;;;;2.52;92.63;101383.80;102936;1317;24179;-60
2021/12/14 00:26:46;;;;;;;134.70;55.10;;;;;;;2.53;92.63;101380.96;102966;1316;23014;-60
2021/12/14 00:29:24;;;;;;;126.70;57.40;;;;;;;2.52;92.71;101377.49;102928;1313;22597;-60
2021/12/14 00:31:56;;;;;;;113.50;52.70;;;;;;;2.53;92.66;101376.86;102919;1317;22579;-60
2021/12/14 00:34:37;;;;;;;118.70;55.60;;;;;;;2.54;92.72;101378.36;102904;1319;24644;-61
2021/12/14 00:37:09;;;;;;;118.90;52.40;;;;;;;2.54;92.79;101384.65;102769;1313;22821;-60
2021/12/14 00:39:41;;;;;;;127.20;57.30;;;;;;;2.52;92.76;101383.48;102809;1318;25576;-60
2021/12/14 00:42:12;;;;;;;128.80;57.90;;;;;;;2.51;92.78;101381.76;102791;1316;22567;-60
2021/12/14 00:44:44;;;;;;;127.40;53.70;;;;;;;2.50;92.85;101386.73;102722;1316;22564;-60
2021/12/14 00:47:16;;;;;;;129.20;56.90;;;;;;;2.52;93.05;101387.33;102680;1319;24483;-60
2021/12/14 00:49:47;;;;;;;124.30;53.50;;;;;;;2.54;92.96;101388.99;102749;1312;22641;-61
2021/12/14 00:52:18;;;;;;;126.10;55.20;;;;;;;2.55;92.87;101382.61;102862;1312;22578;-61
2021/12/14 00:54:50;;;;;;;125.20;55.40;;;;;;;2.57;92.93;101387.48;102742;1319;22730;-61
2021/12/14 00:57:22;;;;;;;133.60;56.20;;;;;;;2.57;92.81;101387.33;102782;1312;25271;-62
2021/12/14 00:59:53;;;;;;;140.10;61.20;;;;;;;2.58;92.83;101388.83;102826;1312;24214;-59
2021/12/14 01:02:25;;;;;;;132.30;60.30;;;;;;;2.58;92.79;101388.12;102926;1312;22563;-60
2021/12/14 01:04:59;;;;;;;136.70;62.10;;;;;;;2.59;92.86;101392.14;102873;1312;24317;-60
2021/12/14 01:07:32;;;;;;;152.80;66.50;;;;;;;2.59;92.83;101393.62;103006;1316;26131;-61
2021/12/14 01:10:11;;;;;;;157.80;66.10;;;;;;;2.59;92.85;101396.94;102850;1317;22564;-61
2021/12/14 01:12:48;;;;;;;161.10;70.20;;;;;;;2.61;92.94;101395.11;102996;1319;25553;-60
2021/12/14 01:15:27;;;;;;;154.00;67.70;;;;;;;2.63;92.94;101395.59;103340;1301;22749;-64
2021/12/14 01:18:15;;;;;;;151.40;65.90;;;;;;;2.63;92.83;101398.42;102775;1319;25287;-62
2021/12/14 01:20:51;;;;;;;145.10;64.30;;;;;;;2.63;92.81;101403.07;102683;1315;22804;-61
2021/12/14 01:23:30;;;;;;;143.90;63.80;;;;;;;2.64;92.78;101396.92;102615;1315;24285;-62
2021/12/14 01:26:08;;;;;;;138.10;61.20;;;;;;;2.64;92.74;101393.85;102661;1322;22765;-62
2021/12/14 01:28:41;;;;;;;149.80;61.80;;;;;;;2.63;92.67;101395.11;102592;1316;22594;-62
2021/12/14 01:31:20;;;;;;;141.70;61.10;;;;;;;2.64;92.78;101390.55;102628;1319;22965;-62
2021/12/14 01:33:55;;;;;;;140.90;62.30;;;;;;;2.65;92.75;101396.30;102637;1323;24328;-62
2021/12/14 01:36:35;;;;;;;146.80;62.90;;;;;;;2.64;92.78;101393.30;102580;1315;23807;-63
2021/12/14 01:39:34;;;;;;;145.10;61.50;;;;;;;2.64;92.80;101388.73;102611;1314;22599;-63
2021/12/14 01:42:09;;;;;;;142.00;62.00;;;;;;;2.65;92.74;101394.96;102569;1316;22651;-63
2021/12/14 01:44:44;;;;;;;134.00;60.40;;;;;;;2.64;92.79;101395.19;102579;1319;27709;-63
2021/12/14 01:47:19;;;;;;;135.10;61.00;;;;;;;2.65;92.82;101392.90;102615;1316;23138;-62
2021/12/14 01:49:50;;;;;;;153.70;64.30;;;;;;;2.66;92.73;101392.58;102781;1315;24719;-62
2021/12/14 01:52:23;;;;;;;161.80;67.20;;;;;;;2.66;92.73;101393.77;102795;1315;23909;-63
2021/12/14 01:55:00;;;;;;;155.60;66.60;;;;;;;2.68;92.81;101391.88;102693;1322;22573;-62
2021/12/14 01:57:35;;;;;;;152.50;68.20;;;;;;;2.69;92.70;101388.73;102760;1322;22595;-63
2021/12/14 02:00:11;;;;;;;157.10;68.90;;;;;;;2.70;92.72;101384.30;102680;1317;25217;-62
2021/12/14 02:02:45;;;;;;;142.50;61.30;;;;;;;2.70;92.68;101385.64;102797;1315;25255;-61
2021/12/14 02:05:22;;;;;;;135.90;61.60;;;;;;;2.70;92.69;101388.23;102628;1316;25280;-62
2021/12/14 02:07:55;;;;;;;142.80;61.70;;;;;;;2.69;92.68;101384.78;102671;1314;26513;-62
2021/12/14 02:10:29;;;;;;;147.60;63.00;;;;;;;2.68;92.69;101382.18;102659;1315;23421;-63
2021/12/14 02:13:01;;;;;;;145.40;64.40;;;;;;;2.68;92.68;101382.57;102902;1320;25232;-62
2021/12/14 02:15:38;;;;;;;143.80;64.30;;;;;;;2.67;92.69;101382.89;102941;1321;25429;-62
2021/12/14 02:18:14;;;;;;;144.80;63.70;;;;;;;2.67;92.73;101380.30;102805;1314;24309;-64
2021/12/14 02:20:53;;;;;;;139.80;62.40;;;;;;;2.67;92.76;101384.95;102965;1320;22773;-63
2021/12/14 02:23:28;;;;;;;144.00;63.60;;;;;;;2.66;92.83;101381.33;103027;1315;22600;-62
2021/12/14 02:26:03;;;;;;;142.20;63.70;;;;;;;2.66;92.78;101378.88;102795;1316;22586;-62
2021/12/14 02:28:33;;;;;;;130.70;58.50;;;;;;;2.65;92.78;101378.19;102774;1314;25659;-62
2021/12/14 02:31:08;;;;;;;123.30;58.80;;;;;;;2.64;92.73;101381.73;102747;1322;22648;-63
2021/12/14 02:33:42;;;;;;;130.50;55.60;;;;;;;2.62;92.78;101381.73;102789;1322;22558;-63
2021/12/14 02:36:21;;;;;;;130.30;54.10;;;;;;;2.62;92.78;101377.16;102765;1319;22756;-63
2021/12/14 02:39:05;;;;;;;131.70;57.30;;;;;;;2.64;92.87;101373.53;102749;1316;22650;-63
2021/12/14 02:41:46;;;;;;;125.50;54.20;;;;;;;2.63;92.86;101366.05;102701;1316;22563;-63
2021/12/14 02:44:18;;;;;;;116.90;49.90;;;;;;;2.62;92.84;101367.47;102877;1315;22581;-63
2021/12/14 02:46:52;;;;;;;121.90;49.80;;;;;;;2.61;92.77;101372.04;102678;1314;22596;-63
2021/12/14 02:49:25;;;;;;;110.30;47.00;;;;;;;2.60;92.84;101369.68;102799;1315;22680;-63
2021/12/14 02:51:59;;;;;;;105.20;47.20;;;;;;;2.60;92.80;101364.48;102857;1319;22643;-63
2021/12/14 02:54:33;;;;;;;106.10;47.20;;;;;;;2.57;92.76;101364.80;102838;1319;22600;-63
2021/12/14 02:57:08;;;;;;;103.40;46.20;;;;;;;2.56;92.76;101363.31;102761;1315;22597;-63
2021/12/14 02:59:41;;;;;;;99.50;46.10;;;;;;;2.54;92.81;101364.65;102882;1321;24331;-63
2021/12/14 03:02:15;;;;;;;110.00;49.70;;;;;;;2.54;92.85;101361.49;102660;1320;23882;-63
2021/12/14 03:04:48;;;;;;;107.10;48.40;;;;;;;2.53;92.83;101363.95;102715;1315;22561;-64
2021/12/14 03:07:25;;;;;;;111.20;49.90;;;;;;;2.53;92.89;101363.79;102756;1316;23266;-63
2021/12/14 03:10:07;;;;;;;109.40;48.90;;;;;;;2.55;92.96;101364.49;102856;1322;25669;-63
2021/12/14 03:12:41;;;;;;;104.30;48.30;;;;;;;2.55;92.97;101360.95;102748;1321;24007;-62
2021/12/14 03:15:17;;;;;;;103.50;44.80;;;;;;;2.56;92.93;101360.71;102758;1315;22640;-62
2021/12/14 03:17:50;;;;;;;100.60;43.60;;;;;;;2.56;93.00;101358.89;102868;1319;22647;-62
2021/12/14 03:20:24;;;;;;;100.90;43.30;;;;;;;2.56;92.91;101360.71;102693;1314;24201;-62
2021/12/14 03:23:04;;;;;;;98.50;42.70;;;;;;;2.56;92.93;101360.33;102673;1319;24337;-62
2021/12/14 03:25:38;;;;;;;101.10;42.40;;;;;;;2.56;92.90;101363.63;102706;1315;22577;-63
2021/12/14 03:28:10;;;;;;;98.70;43.00;;;;;;;2.55;92.92;101360.23;102735;1322;22789;-63
2021/12/14 03:30:50;;;;;;;89.10;38.70;;;;;;;2.54;92.91;101358.35;102755;1321;22570;-63
2021/12/14 03:33:27;;;;;;;92.70;42.30;;;;;;;2.53;92.92;101359.61;102633;1315;25336;-63
2021/12/14 03:36:02;;;;;;;92.70;40.70;;;;;;;2.51;92.94;101358.67;102684;1315;22843;-62
2021/12/14 03:38:38;;;;;;;98.50;41.20;;;;;;;2.53;92.99;101361.34;102644;1319;23197;-62
2021/12/14 03:41:15;;;;;;;85.70;37.80;;;;;;;2.56;93.04;101360.16;102779;1315;22563;-62
2021/12/14 03:43:57;;;;;;;95.10;38.70;;;;;;;2.57;93.04;101352.44;102748;1315;22624;-62
2021/12/14 03:46:31;;;;;;;91.90;39.70;;;;;;;2.59;92.98;101357.88;102587;1317;22690;-62
2021/12/14 03:49:07;;;;;;;82.80;36.90;;;;;;;2.59;92.93;101355.52;102796;1315;22584;-63
2021/12/14 03:51:39;;;;;;;86.80;38.50;;;;;;;2.60;92.94;101345.98;102705;1316;22564;-62
2021/12/14 03:54:11;;;;;;;97.60;38.20;;;;;;;2.60;92.84;101349.69;102660;1319;26566;-62
2021/12/14 03:56:42;;;;;;;88.60;38.10;;;;;;;2.58;92.85;101357.95;102679;1318;24212;-62
2021/12/14 03:59:14;;;;;;;88.20;40.50;;;;;;;2.58;92.79;101361.48;102707;1316;25309;-62
2021/12/14 04:01:48;;;;;;;91.50;41.40;;;;;;;2.58;92.93;101357.88;102713;1321;22667;-61
2021/12/14 04:04:23;;;;;;;96.40;42.20;;;;;;;2.60;92.83;101353.45;102738;1315;22787;-62
2021/12/14 04:06:57;;;;;;;94.40;39.60;;;;;;;2.60;92.93;101349.36;102782;1322;24313;-62
2021/12/14 04:09:31;;;;;;;89.70;39.00;;;;;;;2.60;92.86;101344.31;102724;1321;24251;-63
2021/12/14 04:12:06;;;;;;;82.30;36.60;;;;;;;2.60;92.92;101347.39;102675;1318;22574;-63
2021/12/14 04:14:42;;;;;;;86.40;35.80;;;;;;;2.60;92.89;101348.49;102693;1315;25288;-63
2021/12/14 04:17:13;;;;;;;94.00;37.90;;;;;;;2.62;92.98;101349.36;102695;1319;23943;-63
2021/12/14 04:19:45;;;;;;;91.50;37.40;;;;;;;2.61;92.87;101347.15;102728;1319;22650;-63
2021/12/14 04:22:25;;;;;;;94.30;39.60;;;;;;;2.62;92.97;101348.18;102891;1315;25306;-62
2021/12/14 04:24:59;;;;;;;86.60;37.80;;;;;;;2.64;93.00;101348.56;102654;1315;22588;-62
2021/12/14 04:27:32;;;;;;;92.60;41.70;;;;;;;2.65;92.96;101351.02;102720;1315;22604;-62
2021/12/14 04:30:08;;;;;;;84.80;38.30;;;;;;;2.66;92.93;101347.06;102685;1315;23953;-62
2021/12/14 04:32:39;;;;;;;94.00;39.80;;;;;;;2.68;92.99;101344.77;106370;1316;23087;-61
2021/12/14 04:35:11;;;;;;;91.60;37.00;;;;;;;2.70;92.99;101347.98;106397;1315;22292;-61
2021/12/14 04:37:47;;;;;;;84.80;37.00;;;;;;;2.70;92.86;101347.60;106390;1319;23031;-61
2021/12/14 04:51:52;;;;;;;98.20;42.40;;;;;;;2.70;92.87;101347.67;106362;1322;22469;-60
2021/12/14 04:51:58;;;;;;;100.80;45.20;;;;;;;2.66;92.66;101338.00;106391;1321;22512;-59
2021/12/14 04:54:32;;;;;;;85.30;38.60;;;;;;;2.67;92.68;101331.54;106394;1320;22908;-58
2021/12/14 04:57:03;;;;;;;93.10;40.30;;;;;;;2.68;92.73;101326.17;106201;1321;22467;-59
2021/12/14 04:59:38;;;;;;;97.50;40.90;;;;;;;2.70;92.67;101323.09;106378;1315;22618;-60
2021/12/14 05:02:18;;;;;;;95.60;40.00;;;;;;;2.69;92.59;101318.29;106410;1315;22418;-60
2021/12/14 05:04:50;;;;;;;91.00;40.60;;;;;;;2.69;92.65;101314.03;106438;1321;22474;-58
2021/12/14 05:07:45;;;;;;;95.90;39.50;;;;;;;2.69;92.63;101313.02;106360;1322;22522;-61
2021/12/14 05:10:20;;;;;;;89.50;37.70;;;;;;;2.70;92.64;101312.30;106339;1315;22616;-61
2021/12/14 05:12:51;;;;;;;87.60;37.60;;;;;;;2.70;92.58;101311.68;106379;1319;23144;-65
2021/12/14 05:15:22;;;;;;;85.40;39.20;;;;;;;2.69;92.56;101313.19;106400;1321;22427;-62
2021/12/14 05:17:53;;;;;;;96.40;37.70;;;;;;;2.69;92.60;101314.60;106356;1322;22467;-61
2021/12/14 05:20:24;;;;;;;86.50;33.60;;;;;;;2.69;92.64;101313.64;106349;1322;22555;-62
2021/12/14 05:22:56;;;;;;;90.90;37.90;;;;;;;2.66;92.54;101317.83;106348;1317;22406;-61
2021/12/14 05:25:28;;;;;;;100.10;40.80;;;;;;;2.65;92.60;101326.89;106370;1322;23315;-61
2021/12/14 05:28:04;;;;;;;93.40;38.80;;;;;;;2.67;92.69;101327.91;106380;1322;23083;-61
2021/12/14 05:30:44;;;;;;;96.10;39.50;;;;;;;2.69;92.74;101327.75;106388;1322;22278;-62
2021/12/14 05:33:19;;;;;;;93.10;40.10;;;;;;;2.72;92.73;101323.80;106350;1322;22415;-62
2021/12/14 05:35:53;;;;;;;93.70;39.50;;;;;;;2.74;92.66;101318.35;106355;1317;22544;-62
2021/12/14 05:38:40;;;;;;;89.10;39.10;;;;;;;2.78;92.74;101320.63;106296;1316;23179;-62
2021/12/14 05:43:05;;;;;;;96.00;39.20;;;;;;;2.81;92.60;101319.75;106335;1322;22422;-62
2021/12/14 05:44:06;;;;;;;95.10;36.80;;;;;;;2.84;92.66;101316.11;106349;1321;22381;-62
2021/12/14 05:46:37;;;;;;;98.90;36.40;;;;;;;2.85;92.64;101317.37;106330;1323;23713;-62
2021/12/14 05:49:12;;;;;;;96.30;39.70;;;;;;;2.87;92.66;101320.36;106363;1322;22478;-62
2021/12/14 05:51:43;;;;;;;96.90;38.20;;;;;;;2.89;92.61;101317.67;106353;1323;23533;-62
2021/12/14 05:54:21;;;;;;;89.50;38.00;;;;;;;2.92;92.64;101315.44;106350;1319;23134;-62
2021/12/14 05:56:54;;;;;;;91.30;36.80;;;;;;;2.93;92.62;101309.92;106359;1322;22968;-62
2021/12/14 05:59:29;;;;;;;98.40;43.40;;;;;;;2.95;92.61;101308.34;106356;1316;23232;-62
2021/12/14 06:02:00;;;;;;;97.80;41.60;;;;;;;2.97;92.65;101305.73;106335;1323;22293;-62
2021/12/14 06:04:37;;;;;;;102.60;42.50;;;;;;;2.99;92.60;101307.22;106355;1322;22433;-62
2021/12/14 06:07:08;;;;;;;93.70;39.60;;;;;;;2.99;92.54;101308.23;106357;1322;23372;-62
2021/12/14 06:09:42;;;;;;;98.20;40.70;;;;;;;3.00;92.58;101307.60;106354;1323;22380;-62
2021/12/14 06:12:17;;;;;;;98.50;42.60;;;;;;;3.01;92.62;101309.02;106346;1317;22418;-62
2021/12/14 06:14:53;;;;;;;120.10;55.30;;;;;;;3.03;92.57;101306.16;106332;1320;22517;-62
2021/12/14 06:17:29;;;;;;;125.70;57.80;;;;;;;3.05;92.52;101305.05;106375;1315;23155;-62
2021/12/14 06:20:03;;;;;;;120.60;53.80;;;;;;;3.05;92.54;101308.20;106356;1315;22301;-62
2021/12/14 06:22:35;;;;;;;118.50;50.10;;;;;;;3.06;92.57;101312.61;105868;1322;22593;-62
2021/12/14 06:25:09;;;;;;;101.70;45.80;;;;;;;3.05;92.49;101310.48;106306;1316;22262;-62
2021/12/14 06:27:40;;;;;;;123.60;53.50;;;;;;;3.05;92.45;101309.00;106358;1323;22393;-63
2021/12/14 06:30:15;;;;;;;127.10;56.00;;;;;;;3.03;92.42;101309.72;106285;1316;22468;-62
2021/12/14 06:32:50;;;;;;;124.50;54.00;;;;;;;3.04;92.51;101307.52;106355;1319;22453;-62
2021/12/14 06:35:25;;;;;;;113.90;49.90;;;;;;;3.04;92.41;101307.80;106364;1321;22410;-62
2021/12/14 06:41:12;;;;;;;110.30;48.10;;;;;;;3.06;92.43;101304.89;106055;1324;23069;-62
2021/12/14 06:43:48;;;;;;;107.30;45.10;;;;;;;3.05;92.46;101302.84;106046;1324;22342;-62
2021/12/14 06:46:23;;;;;;;118.00;52.40;;;;;;;3.05;92.45;101303.00;106013;1326;23312;-62
2021/12/14 06:48:57;;;;;;;130.20;57.40;;;;;;;3.06;92.51;101302.61;106046;1326;22305;-62
2021/12/14 06:51:34;;;;;;;115.80;53.10;;;;;;;3.06;92.44;101306.86;106046;1324;22499;-62
2021/12/14 06:54:08;;;;;;;109.20;48.80;;;;;;;3.04;92.42;101306.54;106088;1320;22475;-62
2021/12/14 06:56:40;;;;;;;103.40;45.90;;;;;;;3.03;92.34;101314.52;106048;1321;22291;-62
2021/12/14 06:59:13;;;;;;;101.30;44.70;;;;;;;3.04;92.41;101315.47;105985;1324;23214;-62
2021/12/14 07:01:49;;;;;;;101.40;43.50;;;;;;;3.03;92.46;101318.08;106028;1321;22472;-61
2021/12/14 07:04:23;;;;;;;112.20;44.80;;;;;;;3.02;92.45;101320.51;106027;1321;22369;-61
2021/12/14 07:06:58;;;;;;;101.10;44.20;;;;;;;3.03;92.44;101316.17;105947;1326;22332;-62
2021/12/14 07:09:33;;;;;;;96.50;42.30;;;;;;;3.04;92.53;101316.41;106069;1324;22952;-62
2021/12/14 07:12:08;;;;;;;103.80;43.80;;;;;;;3.05;92.53;101312.06;106042;1326;22985;-61
2021/12/14 07:14:45;;;;;;;114.50;46.50;;;;;;;3.05;92.54;101307.17;105490;1301;22727;-60
2021/12/14 07:17:19;;;;;;;143.00;58.40;;;;;;;3.06;92.58;101307.41;106607;1316;22530;-60
2021/12/14 07:19:54;;;;;;;138.30;58.60;;;;;;;3.08;92.50;101310.24;106548;1319;22406;-60
2021/12/14 07:22:40;;;;;;;148.40;59.00;;;;;;;3.08;92.51;101308.90;106557;1319;23196;-59
2021/12/14 07:25:15;;;;;;;138.70;56.50;;;;;;;3.08;92.48;101307.17;106527;1319;23117;-60
2021/12/14 07:27:48;;;;;;;113.50;48.20;;;;;;;3.07;92.38;101304.48;106449;1321;22517;-60
2021/12/14 07:30:24;;;;;;;131.60;54.60;;;;;;;3.05;92.34;101304.58;106562;1318;22404;-60
2021/12/14 07:32:59;;;;;;;119.20;51.70;;;;;;;3.04;92.46;101303.79;106571;1319;23263;-60
2021/12/14 07:35:38;;;;;;;127.80;57.90;;;;;;;3.03;92.48;101300.73;106534;1319;23285;-59
2021/12/14 07:38:31;;;;;;;116.50;53.30;;;;;;;3.03;92.64;101305.70;106570;1318;22966;-60
2021/12/14 07:41:07;;;;;;;115.70;52.30;;;;;;;3.06;92.66;101304.27;106544;1316;23181;-60
2021/12/14 07:43:43;;;;;;;112.80;49.30;;;;;;;3.07;92.59;101304.09;106572;1320;22519;-60
2021/12/14 07:46:22;;;;;;;111.60;46.30;;;;;;;3.07;92.59;101303.23;106530;1319;22572;-59
2021/12/14 07:48:56;;;;;;;115.20;47.70;;;;;;;3.06;92.51;101310.80;106566;1320;22257;-60
2021/12/14 07:51:29;;;;;;;115.00;47.70;;;;;;;3.08;92.64;101317.02;106545;1312;22436;-59
2021/12/14 07:54:05;;;;;;;105.60;46.70;;;;;;;3.09;92.60;101314.48;106547;1319;22472;-60
2021/12/14 07:56:43;;;;;;;110.50;45.90;;;;;;;3.08;92.60;101309.36;106543;1319;23050;-60
2021/12/14 07:59:20;;;;;;;109.20;47.00;;;;;;;3.07;92.57;101311.97;106523;1312;22511;-60
2021/12/14 08:02:06;;;;;;;107.70;46.60;;;;;;;3.07;92.63;101310.56;106528;1319;23007;-60
2021/12/14 08:04:38;;;;;;;112.00;45.50;;;;;;;3.07;92.77;101306.45;106568;1317;23374;-59
2021/12/14 08:07:10;;;;;;;104.00;43.20;;;;;;;3.10;92.86;101303.84;106531;1320;22494;-60
2021/12/14 08:09:49;;;;;;;107.80;44.00;;;;;;;3.08;92.75;101304.95;106591;1319;22467;-59
2021/12/14 08:12:39;;;;;;;110.40;46.00;;;;;;;3.07;92.83;101301.81;106572;1317;22426;-60
2021/12/14 08:15:15;;;;;;;104.60;45.30;;;;;;;3.08;92.95;101313.00;106581;1320;22428;-60
2021/12/14 08:17:57;;;;;;;108.70;48.00;;;;;;;3.09;92.95;101313.46;106565;1319;23164;-59
2021/12/14 08:20:29;;;;;;;116.90;48.00;;;;;;;3.11;93.05;101313.29;106572;1319;22518;-60
2021/12/14 08:23:13;;;;;;;107.80;47.70;;;;;;;3.13;93.13;101312.18;106572;1319;22438;-61
2021/12/14 08:25:44;;;;;;;106.60;46.30;;;;;;;3.15;93.20;101312.48;106556;1319;22440;-60
2021/12/14 08:28:18;;;;;;;106.60;48.40;;;;;;;3.17;93.17;101319.25;106553;1317;22563;-60
2021/12/14 08:30:59;;;;;;;119.50;51.90;;;;;;;3.21;93.26;101323.09;106579;1319;23163;-60
2021/12/14 08:33:32;;;;;;;122.50;51.60;;;;;;;3.24;93.25;101324.66;106579;1318;22297;-60
2021/12/14 08:36:06;;;;;;;123.60;55.60;;;;;;;3.26;93.21;101323.45;106564;1319;22278;-60
2021/12/14 08:38:37;;;;;;;122.80;53.80;;;;;;;3.28;93.27;101321.55;106528;1318;22883;-60
2021/12/14 08:41:16;;;;;;;119.70;56.20;;;;;;;3.30;93.19;101323.27;106545;1318;22431;-61
2021/12/14 08:43:52;;;;;;;119.90;52.70;;;;;;;3.33;93.23;101326.89;106592;1319;22501;-60
2021/12/14 08:46:27;;;;;;;130.00;55.50;;;;;;;3.37;93.37;101327.35;106568;1319;22482;-61
2021/12/14 08:49:07;;;;;;;127.00;54.90;;;;;;;3.39;93.19;101327.02;106560;1320;22376;-61
2021/12/14 08:51:42;;;;;;;135.40;57.40;;;;;;;3.42;93.27;101322.17;106573;1319;22423;-61
2021/12/14 08:54:17;;;;;;;129.20;57.10;;;;;;;3.44;93.17;101317.35;106571;1318;22295;-60
2021/12/14 08:56:53;;;;;;;206.90;98.10;;;;;;;3.45;93.18;101319.02;106576;1319;23053;-58
2021/12/14 08:59:24;;;;;;;161.80;72.70;;;;;;;3.44;93.04;101321.14;106544;1319;23130;-59
2021/12/14 09:01:56;;;;;;;137.70;59.40;;;;;;;3.44;93.01;101320.74;106585;1319;22471;-59
2021/12/14 09:04:31;;;;;;;123.90;54.20;;;;;;;3.43;92.92;101323.43;106552;1313;22268;-60
2021/12/14 09:07:05;;;;;;;122.80;56.70;;;;;;;3.44;93.04;101311.85;106539;1320;22403;-60
2021/12/14 09:09:37;;;;;;;122.00;52.00;;;;;;;3.46;93.15;101312.53;106537;1319;22289;-60
2021/12/14 09:12:12;;;;;;;122.80;54.10;;;;;;;3.48;93.12;101312.98;106558;1319;22297;-60
2021/12/14 09:14:45;;;;;;;123.50;52.10;;;;;;;3.51;93.13;101307.70;106577;1319;22555;-59
2021/12/14 09:17:22;;;;;;;114.10;50.70;;;;;;;3.51;92.97;101314.55;106601;1319;22548;-59
2021/12/14 09:19:57;;;;;;;117.80;50.90;;;;;;;3.49;92.91;101312.66;106587;1318;22451;-59
2021/12/14 09:22:31;;;;;;;117.80;50.50;;;;;;;3.52;93.05;101306.11;106588;1318;22475;-59
2021/12/14 09:25:05;;;;;;;108.90;50.70;;;;;;;3.54;93.10;101297.02;106630;1316;22284;-60
2021/12/14 09:27:37;;;;;;;116.10;49.10;;;;;;;3.54;93.05;101298.91;106557;1319;22270;-59
2021/12/14 09:30:11;;;;;;;119.50;50.70;;;;;;;3.54;93.01;101296.95;106544;1313;22263;-59
2021/12/14 09:32:42;;;;;;;117.30;50.40;;;;;;;3.53;92.99;101300.49;106595;1318;22392;-59
2021/12/14 09:35:17;;;;;;;119.70;50.90;;;;;;;3.55;93.13;101298.42;106395;1313;22429;-60
2021/12/14 09:37:51;;;;;;;122.20;52.10;;;;;;;3.58;93.21;101288.46;106527;1318;22419;-59
2021/12/14 09:40:25;;;;;;;131.60;55.80;;;;;;;3.59;93.14;101286.33;106565;1317;22423;-60
2021/12/14 09:42:57;;;;;;;125.40;55.10;;;;;;;3.58;93.07;101286.09;106597;1319;23270;-60
2021/12/14 09:45:33;;;;;;;115.70;52.50;;;;;;;3.61;93.26;101289.55;106552;1318;22400;-60
2021/12/14 09:48:06;;;;;;;117.40;51.60;;;;;;;3.63;93.19;101292.30;106562;1314;22388;-60
2021/12/14 09:50:38;;;;;;;117.50;50.80;;;;;;;3.64;93.19;101291.58;106561;1318;22364;-59
2021/12/14 09:53:12;;;;;;;112.70;49.50;;;;;;;3.64;93.14;101286.67;106596;1313;22386;-60
2021/12/14 09:55:46;;;;;;;118.70;51.30;;;;;;;3.65;93.14;101283.83;106582;1313;22281;-60
2021/12/14 09:58:21;;;;;;;117.30;52.40;;;;;;;3.68;93.24;101280.52;106498;1319;23248;-60
2021/12/14 10:00:55;;;;;;;112.70;50.40;;;;;;;3.68;93.18;101284.28;106593;1318;22452;-59
2021/12/14 10:03:28;;;;;;;120.80;48.10;;;;;;;3.69;93.20;101286.56;106364;1318;23342;-60
2021/12/14 10:06:02;;;;;;;104.30;43.80;;;;;;;3.71;93.36;101287.02;106591;1317;22321;-60
2021/12/14 10:08:36;;;;;;;104.00;42.20;;;;;;;3.72;93.29;101287.96;106577;1312;22292;-59
2021/12/14 10:11:12;;;;;;;107.00;42.60;;;;;;;3.72;93.24;101283.38;106572;1319;22422;-60
2021/12/14 10:13:46;;;;;;;108.50;41.80;;;;;;;3.72;93.30;101286.63;106602;1316;22255;-60
2021/12/14 10:16:17;;;;;;;112.40;44.10;;;;;;;3.73;93.29;101288.52;106521;1317;22439;-59
2021/12/14 10:18:52;;;;;;;116.20;47.30;;;;;;;3.74;93.39;101290.31;106553;1319;22938;-59
2021/12/14 10:21:28;;;;;;;115.80;52.00;;;;;;;3.76;93.43;101287.61;106577;1317;22427;-59
2021/12/14 10:24:01;;;;;;;109.90;44.20;;;;;;;3.80;93.57;101288.76;106550;1319;22443;-60
2021/12/14 10:26:35;;;;;;;103.30;45.20;;;;;;;3.83;93.55;101287.63;106451;1320;23089;-59
2021/12/14 10:29:06;;;;;;;109.90;43.90;;;;;;;3.85;93.48;101294.39;106566;1312;22288;-59
2021/12/14 10:31:41;;;;;;;104.60;46.60;;;;;;;3.86;93.46;101293.91;106559;1318;22454;-60
2021/12/14 10:34:16;;;;;;;98.60;43.10;;;;;;;3.88;93.48;101299.41;106510;1320;22451;-60
2021/12/14 10:36:53;;;;;;;93.70;41.00;;;;;;;3.92;93.50;101302.48;106595;1319;22398;-59
2021/12/14 10:39:37;;;;;;;101.00;40.70;;;;;;;3.94;93.44;101297.46;106536;1320;22285;-59
2021/12/14 10:45:06;;;;;;;106.90;42.10;;;;;;;3.94;93.40;101293.52;106753;1312;23185;-61
2021/12/14 10:47:38;;;;;;;97.20;42.70;;;;;;;3.97;93.63;101288.84;106609;1312;22306;-61
2021/12/14 10:50:14;;;;;;;105.50;44.50;;;;;;;4.00;93.63;101286.92;106578;1313;22269;-61
2021/12/14 10:52:47;;;;;;;103.30;44.10;;;;;;;4.04;93.65;101288.30;106649;1317;22262;-61
2021/12/14 10:55:23;;;;;;;101.20;45.00;;;;;;;4.07;93.61;101282.50;106650;1319;22459;-61
2021/12/14 10:57:54;;;;;;;114.00;46.60;;;;;;;4.10;93.73;101276.09;106642;1319;22494;-61
2021/12/14 11:00:35;;;;;;;104.10;45.10;;;;;;;4.13;93.75;101266.82;106642;1312;22485;-62
2021/12/14 11:03:10;;;;;;;106.90;45.90;;;;;;;4.15;93.80;101261.44;106603;1318;22461;-61
2021/12/14 11:05:46;;;;;;;111.30;44.20;;;;;;;4.16;93.81;101266.55;106626;1320;22266;-61
2021/12/14 11:08:36;;;;;;;96.50;43.90;;;;;;;4.18;93.77;101268.17;106586;1317;23446;-62
2021/12/14 11:11:11;;;;;;;98.10;41.40;;;;;;;4.21;93.75;101265.39;106636;1313;22594;-60
2021/12/14 11:13:46;;;;;;;101.10;43.50;;;;;;;4.23;93.82;101264.98;106609;1319;22558;-61
2021/12/14 11:16:33;;;;;;;100.90;43.50;;;;;;;4.25;93.87;101266.77;106509;1320;23333;-61
2021/12/14 11:19:07;;;;;;;122.80;52.00;;;;;;;4.27;93.88;101265.96;106619;1313;23271;-61
2021/12/14 11:21:38;;;;;;;110.00;48.60;;;;;;;4.30;93.81;101270.12;106635;1317;22423;-61
2021/12/14 11:24:09;;;;;;;105.90;43.80;;;;;;;4.32;93.78;101268.52;106634;1316;22220;-61
2021/12/14 11:26:40;;;;;;;92.80;38.60;;;;;;;4.34;93.70;101275.61;106625;1312;22287;-62
2021/12/14 11:29:16;;;;;;;84.80;36.70;;;;;;;4.35;93.67;101270.15;105743;1320;22332;-62
2021/12/14 11:31:51;;;;;;;134.20;67.20;;;;;;;4.35;93.63;101262.95;106643;1313;23137;-61
2021/12/14 11:34:34;;;;;;;132.10;57.30;;;;;;;4.36;93.64;101261.67;106565;1313;22301;-62
2021/12/14 11:37:14;;;;;;;116.80;51.50;;;;;;;4.38;93.70;101255.57;106662;1319;22613;-62
2021/12/14 11:39:49;;;;;;;109.10;45.50;;;;;;;4.43;93.74;101253.61;106630;1319;22498;-61
2021/12/14 11:42:27;;;;;;;108.30;43.80;;;;;;;4.43;93.49;101256.30;106635;1313;22395;-61
2021/12/14 11:45:04;;;;;;;99.50;43.00;;;;;;;4.42;93.46;101253.56;106640;1313;22438;-61
2021/12/14 11:47:46;;;;;;;108.00;45.70;;;;;;;4.41;93.42;101259.63;106637;1312;23175;-62
2021/12/14 11:50:24;;;;;;;120.00;50.60;;;;;;;4.40;93.42;101252.31;106321;1319;22316;-61
2021/12/14 11:52:59;;;;;;;112.90;51.80;;;;;;;4.39;93.39;101256.97;106637;1312;22467;-61
2021/12/14 11:55:45;;;;;;;119.50;50.50;;;;;;;4.37;93.32;101251.94;106652;1313;22257;-62